createdAt,value
2022-10-22T00:00:46.624Z,13.28
2022-10-22T00:05:48.430Z,13.31
2022-10-22T00:10:50.968Z,13.37
2022-10-22T00:15:52.272Z,13.45
2022-10-22T00:20:53.580Z,13.39
2022-10-22T00:25:54.977Z,13.36
2022-10-22T00:30:57.796Z,13.37
2022-10-22T00:35:59.209Z,13.38
2022-10-22T00:46:06.840Z,13.54
2022-10-22T00:51:09.340Z,13.50
2022-10-22T00:56:11.402Z,13.51
2022-10-22T01:01:21.629Z,13.50
2022-10-22T01:06:33.412Z,13.55
2022-10-22T01:11:40.623Z,13.59
2022-10-22T01:16:59.183Z,13.61
2022-10-22T01:22:05.865Z,13.58
2022-10-22T01:27:07.166Z,13.57
2022-10-22T01:32:14.706Z,13.54
2022-10-22T01:37:17.955Z,13.57
2022-10-22T01:42:19.306Z,13.51
2022-10-22T01:47:29.703Z,13.46
2022-10-22T01:52:30.990Z,13.44
2022-10-22T01:57:53.291Z,13.44
2022-10-22T02:02:58.832Z,13.45
2022-10-22T02:08:02.408Z,13.42
2022-10-22T02:13:04.874Z,13.44
2022-10-22T02:18:08.581Z,13.53
2022-10-22T02:23:10.351Z,13.61
2022-10-22T02:28:24.522Z,13.59
2022-10-22T02:33:31.259Z,13.66
2022-10-22T02:38:34.423Z,13.73
2022-10-22T02:43:43.089Z,13.67
2022-10-22T02:48:44.395Z,13.57
2022-10-22T02:53:45.771Z,13.39
2022-10-22T02:58:47.071Z,13.34
2022-10-22T03:03:48.570Z,13.25
2022-10-22T03:08:49.931Z,13.09
2022-10-22T03:13:51.257Z,12.86
2022-10-22T03:18:52.610Z,12.53
2022-10-22T03:23:54.175Z,12.38
2022-10-22T03:28:55.636Z,12.85
2022-10-22T03:33:56.938Z,12.84
2022-10-22T03:38:59.284Z,12.63
2022-10-22T03:44:01.791Z,12.41
2022-10-22T03:49:03.139Z,12.51
2022-10-22T03:54:04.981Z,12.44
2022-10-22T03:59:06.291Z,11.91
2022-10-22T04:04:07.767Z,11.61
2022-10-22T04:09:09.190Z,11.42
2022-10-22T04:14:12.023Z,11.46
2022-10-22T04:19:13.416Z,11.15
2022-10-22T04:24:15.083Z,11.02
2022-10-22T04:29:16.573Z,10.88
2022-10-22T04:34:17.942Z,10.91
2022-10-22T04:39:19.342Z,10.93
2022-10-22T04:44:20.627Z,10.90
2022-10-22T04:49:21.936Z,11.15
2022-10-22T04:54:23.283Z,10.93
2022-10-22T04:59:24.592Z,10.92
2022-10-22T05:04:26.013Z,11.50
2022-10-22T05:09:27.389Z,12.15
2022-10-22T05:14:28.695Z,12.38
2022-10-22T05:19:30.941Z,12.49
2022-10-22T05:24:33.522Z,12.60
2022-10-22T05:29:34.904Z,12.54
2022-10-22T05:34:36.333Z,12.50
2022-10-22T05:39:40.193Z,12.44
2022-10-22T05:44:41.515Z,12.39
2022-10-22T05:49:42.823Z,12.37
2022-10-22T05:54:44.143Z,12.41
2022-10-22T05:59:46.051Z,12.42
2022-10-22T06:04:47.734Z,12.35
2022-10-22T06:09:50.262Z,12.00
2022-10-22T06:14:51.562Z,12.04
2022-10-22T06:19:52.882Z,12.23
2022-10-22T06:24:54.221Z,12.35
2022-10-22T06:29:55.539Z,12.40
2022-10-22T06:34:56.945Z,13.08
2022-10-22T06:39:58.251Z,13.67
2022-10-22T06:44:59.614Z,12.86
2022-10-22T06:50:00.918Z,13.72
2022-10-22T06:55:02.285Z,12.82
2022-10-22T07:00:05.120Z,12.29
2022-10-22T07:05:06.723Z,12.09
2022-10-22T07:10:08.443Z,11.92
2022-10-22T07:15:09.975Z,12.13
2022-10-22T07:20:12.422Z,12.12
2022-10-22T07:25:13.763Z,14.58
2022-10-22T07:30:15.133Z,15.84
2022-10-22T07:35:16.463Z,18.46
2022-10-22T07:40:17.762Z,20.35
2022-10-22T07:45:19.116Z,19.11
2022-10-22T07:50:20.426Z,17.65
2022-10-22T07:55:21.733Z,17.73
2022-10-22T08:00:25.226Z,18.42
2022-10-22T08:05:26.871Z,17.02
2022-10-22T08:10:28.174Z,16.30
2022-10-22T08:15:29.624Z,15.84
2022-10-22T08:20:30.924Z,15.72
2022-10-22T08:25:32.500Z,16.07
2022-10-22T08:30:33.995Z,16.03
2022-10-22T08:35:35.356Z,16.38
2022-10-22T08:40:39.684Z,18.62
2022-10-22T08:45:46.448Z,20.31
2022-10-22T08:50:49.737Z,17.82
2022-10-22T08:55:53.550Z,17.62
2022-10-22T09:01:00.853Z,17.23
2022-10-22T09:06:08.459Z,16.95
2022-10-22T09:11:12.549Z,16.88
2022-10-22T09:16:16.502Z,16.92
2022-10-22T09:21:29.784Z,16.61
2022-10-22T09:26:32.371Z,16.41
2022-10-22T09:31:34.265Z,16.11
2022-10-22T09:36:35.866Z,16.01
2022-10-22T09:41:37.173Z,15.79
2022-10-22T09:46:43.882Z,16.03
2022-10-22T09:51:48.286Z,16.25
2022-10-22T09:56:54.306Z,16.38
2022-10-22T10:02:13.374Z,16.48
2022-10-22T10:07:23.525Z,16.93
2022-10-22T10:12:33.973Z,17.25
2022-10-22T10:17:54.231Z,17.29
2022-10-22T10:23:03.159Z,17.40
2022-10-22T10:28:12.615Z,17.34
2022-10-22T10:33:16.975Z,17.07
2022-10-22T10:38:18.245Z,17.03
2022-10-22T10:43:38.290Z,16.96
2022-10-22T10:48:51.116Z,17.19
2022-10-22T10:54:04.874Z,17.60
2022-10-22T10:59:25.609Z,17.82
2022-10-22T11:04:39.551Z,18.00
2022-10-22T11:09:53.586Z,18.35
2022-10-22T11:14:54.863Z,18.74
2022-10-22T11:20:01.758Z,18.28
2022-10-22T11:25:05.777Z,17.89
2022-10-22T11:30:17.931Z,17.75
2022-10-22T11:35:25.905Z,17.91
2022-10-22T11:40:36.918Z,17.59
2022-10-22T11:45:42.554Z,17.66
2022-10-22T11:50:54.237Z,17.33
2022-10-22T11:56:04.938Z,17.40
2022-10-22T12:01:09.356Z,17.60
2022-10-22T12:06:15.654Z,17.99
2022-10-22T12:11:17.179Z,19.71
2022-10-22T12:16:27.326Z,21.39
2022-10-22T12:21:42.776Z,21.33
2022-10-22T12:26:45.919Z,21.82
2022-10-22T12:31:47.408Z,21.17
2022-10-22T12:36:49.561Z,19.82
2022-10-22T12:41:52.012Z,19.28
2022-10-22T12:46:56.882Z,19.03
2022-10-22T12:52:00.859Z,18.96
2022-10-22T12:57:02.416Z,18.72
2022-10-22T13:02:15.359Z,18.62
2022-10-22T13:07:19.952Z,18.54
2022-10-22T13:12:35.623Z,18.65
2022-10-22T13:17:39.161Z,18.80
2022-10-22T13:22:41.835Z,18.81
2022-10-22T13:27:44.228Z,18.63
2022-10-22T13:32:49.871Z,18.61
2022-10-22T13:37:51.452Z,18.62
2022-10-22T13:42:52.765Z,18.63
2022-10-22T13:47:54.725Z,18.71
2022-10-22T13:52:57.528Z,18.82
2022-10-22T13:58:04.443Z,18.70
2022-10-22T14:03:06.575Z,18.38
2022-10-22T14:08:12.676Z,18.47
2022-10-22T14:13:15.446Z,18.35
2022-10-22T14:18:24.134Z,18.20
2022-10-22T14:23:28.567Z,18.18
2022-10-22T14:28:34.138Z,18.29
2022-10-22T14:33:42.276Z,18.26
2022-10-22T14:38:44.167Z,18.23
2022-10-22T14:43:45.727Z,18.29
2022-10-22T14:48:47.556Z,18.43
2022-10-22T14:53:48.933Z,18.54
2022-10-22T14:58:50.808Z,18.67
2022-10-22T15:03:52.171Z,18.61
2022-10-22T15:08:53.533Z,18.21
2022-10-22T15:13:54.873Z,17.88
2022-10-22T15:18:57.156Z,17.85
2022-10-22T15:23:58.653Z,17.85
2022-10-22T15:29:01.846Z,17.70
2022-10-22T15:34:03.139Z,17.42
2022-10-22T15:39:08.634Z,17.20
2022-10-22T15:44:15.612Z,16.94
2022-10-22T15:49:17.307Z,16.61
2022-10-22T15:54:19.977Z,16.30
2022-10-22T15:59:21.392Z,16.07
2022-10-22T16:04:22.722Z,15.75
2022-10-22T16:09:25.386Z,15.63
2022-10-22T16:14:28.616Z,15.50
2022-10-22T16:19:29.935Z,15.37
2022-10-22T16:24:31.310Z,15.24
2022-10-22T16:29:33.503Z,15.01
2022-10-22T16:34:34.845Z,14.91
2022-10-22T16:39:36.202Z,14.89
2022-10-22T16:44:37.538Z,14.80
2022-10-22T16:49:38.859Z,14.61
2022-10-22T16:54:40.295Z,14.26
2022-10-22T16:59:41.568Z,14.08
2022-10-22T17:04:42.924Z,13.97
2022-10-22T17:09:44.221Z,13.77
2022-10-22T17:14:45.525Z,13.52
2022-10-22T17:19:46.891Z,13.26
2022-10-22T17:25:04.360Z,13.11
2022-10-22T17:30:06.099Z,12.89
2022-10-22T17:35:08.145Z,12.79
2022-10-22T17:40:09.968Z,12.73
2022-10-22T17:45:11.262Z,12.62
2022-10-22T17:50:12.574Z,12.50
2022-10-22T17:55:13.953Z,12.37
2022-10-22T18:00:16.332Z,12.27
2022-10-22T18:05:17.690Z,12.42
2022-10-22T18:10:18.991Z,12.18
2022-10-22T18:15:20.300Z,12.08
2022-10-22T18:20:21.672Z,12.01
2022-10-22T18:25:23.017Z,11.87
2022-10-22T18:30:24.350Z,11.76
2022-10-22T18:35:25.646Z,11.66
2022-10-22T18:40:26.943Z,11.66
2022-10-22T18:45:28.291Z,11.67
2022-10-22T18:50:29.692Z,11.52
2022-10-22T18:55:31.157Z,11.41
2022-10-22T19:00:32.976Z,11.47
2022-10-22T19:05:34.294Z,11.37
2022-10-22T19:10:35.596Z,11.37
2022-10-22T19:15:36.898Z,11.34
2022-10-22T19:20:38.222Z,11.23
2022-10-22T19:25:39.567Z,11.19
2022-10-22T19:30:44.097Z,11.10
2022-10-22T19:35:45.404Z,11.02
2022-10-22T19:40:46.727Z,11.07
2022-10-22T19:45:48.070Z,11.04
2022-10-22T19:50:50.973Z,11.09
2022-10-22T19:55:52.346Z,10.96
2022-10-22T20:00:53.827Z,10.98
2022-10-22T20:05:55.225Z,10.95
2022-10-22T20:10:56.543Z,10.92
2022-10-22T20:15:57.962Z,10.85
2022-10-22T20:20:59.756Z,10.81
2022-10-22T20:26:01.133Z,10.76
2022-10-22T20:31:07.461Z,10.74
2022-10-22T20:36:12.656Z,10.72
2022-10-22T20:41:15.434Z,10.69
2022-10-22T20:46:22.347Z,10.60
2022-10-22T20:51:23.728Z,10.55
2022-10-22T20:56:25.630Z,10.49
2022-10-22T21:01:28.450Z,10.40
2022-10-22T21:06:29.902Z,10.35
2022-10-22T21:11:31.259Z,10.34
2022-10-22T21:16:33.073Z,10.37
2022-10-22T21:21:34.588Z,10.32
2022-10-22T21:26:36.957Z,10.35
2022-10-22T21:31:39.339Z,10.52
2022-10-22T21:36:40.733Z,10.79
2022-10-22T21:41:42.084Z,10.83
2022-10-22T21:46:43.476Z,10.81
2022-10-22T21:51:44.877Z,10.99
2022-10-22T21:56:46.245Z,10.94
2022-10-22T22:01:47.595Z,11.45
2022-10-22T22:06:48.954Z,11.57
2022-10-22T22:11:50.260Z,11.59
2022-10-22T22:16:51.593Z,11.58
2022-10-22T22:21:52.978Z,11.15
2022-10-22T22:26:54.322Z,10.61
2022-10-22T22:31:55.622Z,10.38
2022-10-22T22:36:56.929Z,10.15
2022-10-22T22:41:58.318Z,10.08
2022-10-22T22:46:59.624Z,9.96
2022-10-22T22:52:00.927Z,9.98
2022-10-22T22:57:02.242Z,9.83
2022-10-22T23:02:03.570Z,9.72
2022-10-22T23:07:04.912Z,9.68
2022-10-22T23:12:06.303Z,9.66
2022-10-22T23:17:07.634Z,10.31
2022-10-22T23:22:08.935Z,10.40
2022-10-22T23:27:10.714Z,10.23
2022-10-22T23:32:14.265Z,10.28
2022-10-22T23:37:15.652Z,10.42
2022-10-22T23:42:16.990Z,10.70
2022-10-22T23:47:18.295Z,10.77
2022-10-22T23:52:19.601Z,10.80
2022-10-22T23:57:20.977Z,10.76
